To NAV CANADA Home Page Login to a new session Search on AWWS site Feedback and Comments Disclaimer Vers la page française équivalente Tips FAQ What's new on the site To the Forecasts and Observations / NOTAM section To "File a Flight Plan" website Publications and other links Update of the User's profile FIC Telephone Numbers My Weather Data Folder Route Weather Data Regional Weather Data Local Weather Data To the Forecasts and Observations / NOTAM section
Request Generated 02/24/2017 at 03:38:13 UTC . Weather information available at that time is displayed.

METAR/TAF

PRINCE ALBERT (GLASS FIELD)/SK    

SPECI CYPA 240334Z 05003KT 15SM -SN BKN035 M10/M13 A3012 RMK SC7
SLP237=
METAR CYPA 240300Z 09003KT 15SM BKN041 M10/M13 A3012 RMK SC7 SLP235=
METAR CYPA 240200Z 11003KT 15SM BKN044 M10/M14 A3012 RMK SC7 SLP235=
METAR CYPA 240100Z 12002KT 15SM BKN044 BKN250 M09/M13 A3011 RMK
SC7CI1 CI TR SLP233=

TAF CYPA 240038Z 2401/2413 VRB03KT P6SM BKN040 TEMPO 2401/2413 4SM
-SN BKN020
RMK NXT FCST BY 240700Z=
Your time UTC time
Weather data provided by Environment Canada and NAV CANADA